sensor_id;sensor_type;location;lat;lon;timestamp;pressure;altitude;pressure_sealevel;temperature;humidity
5952;BME280;3001;42.622;23.194;2023-05-20T00:01:25;91595.25;;;12.96;98.97
5952;BME280;3001;42.622;23.194;2023-05-20T00:03:52;91589.25;;;12.87;100.00
5952;BME280;3001;42.622;23.194;2023-05-20T00:06:18;91592.47;;;12.75;100.00
5952;BME280;3001;42.622;23.194;2023-05-20T00:08:45;91600.00;;;12.77;100.00
5952;BME280;3001;42.622;23.194;2023-05-20T00:11:12;91593.72;;;12.78;100.00
5952;BME280;3001;42.622;23.194;2023-05-20T00:13:40;91586.97;;;12.77;100.00
5952;BME280;3001;42.622;23.194;2023-05-20T00:16:07;91588.03;;;12.84;100.00
5952;BME280;3001;42.622;23.194;2023-05-20T00:18:33;91584.81;;;12.87;100.00
5952;BME280;3001;42.622;23.194;2023-05-20T00:21:00;91598.00;;;12.91;100.00
5952;BME280;3001;42.622;23.194;2023-05-20T00:23:27;91587.13;;;12.89;100.00
5952;BME280;3001;42.622;23.194;2023-05-20T00:25:53;91600.91;;;12.81;100.00
5952;BME280;3001;42.622;23.194;2023-05-20T00:28:20;91597.53;;;12.89;100.00
5952;BME280;3001;42.622;23.194;2023-05-20T00:30:49;91588.06;;;13.01;100.00
5952;BME280;3001;42.622;23.194;2023-05-20T00:33:16;91588.06;;;13.10;100.00
5952;BME280;3001;42.622;23.194;2023-05-20T00:35:42;91579.78;;;13.16;100.00
5952;BME280;3001;42.622;23.194;2023-05-20T00:38:09;91578.88;;;13.21;100.00
5952;BME280;3001;42.622;23.194;2023-05-20T00:40:36;91577.63;;;13.27;100.00
5952;BME280;3001;42.622;23.194;2023-05-20T00:43:02;91574.22;;;13.26;100.00
5952;BME280;3001;42.622;23.194;2023-05-20T00:45:29;91582.84;;;13.35;100.00
5952;BME280;3001;42.622;23.194;2023-05-20T00:47:58;91581.75;;;13.36;100.00
5952;BME280;3001;42.622;23.194;2023-05-20T00:50:26;91573.28;;;13.56;100.00
5952;BME280;3001;42.622;23.194;2023-05-20T00:52:53;91578.59;;;13.77;98.89
5952;BME280;3001;42.622;23.194;2023-05-20T00:55:21;91580.25;;;13.81;97.64
5952;BME280;3001;42.622;23.194;2023-05-20T00:57:48;91577.81;;;13.76;95.09
5952;BME280;3001;42.622;23.194;2023-05-20T01:00:15;91572.28;;;13.77;93.78
5952;BME280;3001;42.622;23.194;2023-05-20T01:02:42;91578.72;;;13.80;93.45
5952;BME280;3001;42.622;23.194;2023-05-20T01:05:10;91572.13;;;13.82;93.24
5952;BME280;3001;42.622;23.194;2023-05-20T01:07:37;91569.53;;;13.74;93.99
5952;BME280;3001;42.622;23.194;2023-05-20T01:10:04;91561.75;;;13.66;94.56
5952;BME280;3001;42.622;23.194;2023-05-20T01:12:36;91565.06;;;13.75;94.50
5952;BME280;3001;42.622;23.194;2023-05-20T01:15:06;91564.16;;;13.71;95.43
5952;BME280;3001;42.622;23.194;2023-05-20T01:17:36;91561.47;;;13.50;96.55
5952;BME280;3001;42.622;23.194;2023-05-20T01:20:05;91553.94;;;13.49;96.98
5952;BME280;3001;42.622;23.194;2023-05-20T01:22:37;91554.13;;;13.44;98.18
5952;BME280;3001;42.622;23.194;2023-05-20T01:25:04;91556.28;;;13.42;98.35
5952;BME280;3001;42.622;23.194;2023-05-20T01:27:30;91560.41;;;13.51;98.53
5952;BME280;3001;42.622;23.194;2023-05-20T01:29:57;91567.13;;;13.69;98.71
5952;BME280;3001;42.622;23.194;2023-05-20T01:32:27;91563.91;;;13.64;98.01
5952;BME280;3001;42.622;23.194;2023-05-20T01:34:57;91555.63;;;13.53;96.34
5952;BME280;3001;42.622;23.194;2023-05-20T01:37:25;91562.06;;;13.56;94.32
5952;BME280;3001;42.622;23.194;2023-05-20T01:39:55;91569.59;;;13.57;94.85
5952;BME280;3001;42.622;23.194;2023-05-20T01:42:23;91569.41;;;13.62;94.50
5952;BME280;3001;42.622;23.194;2023-05-20T01:44:52;91572.94;;;13.66;94.68
5952;BME280;3001;42.622;23.194;2023-05-20T01:47:18;91564.66;;;13.56;95.63
5952;BME280;3001;42.622;23.194;2023-05-20T01:49:45;91562.38;;;13.54;96.64
5952;BME280;3001;42.622;23.194;2023-05-20T01:52:13;91556.84;;;13.47;98.07
5952;BME280;3001;42.622;23.194;2023-05-20T01:54:40;91554.28;;;13.39;99.26
5952;BME280;3001;42.622;23.194;2023-05-20T01:57:08;91556.59;;;13.32;99.92
5952;BME280;3001;42.622;23.194;2023-05-20T01:59:35;91549.38;;;13.20;100.00
5952;BME280;3001;42.622;23.194;2023-05-20T02:02:02;91544.00;;;13.17;100.00
5952;BME280;3001;42.622;23.194;2023-05-20T02:04:28;91538.34;;;13.23;100.00
5952;BME280;3001;42.622;23.194;2023-05-20T02:06:55;91544.34;;;12.98;100.00
5952;BME280;3001;42.622;23.194;2023-05-20T02:09:22;91535.63;;;13.03;100.00
5952;BME280;3001;42.622;23.194;2023-05-20T02:11:48;91541.13;;;13.01;100.00
5952;BME280;3001;42.622;23.194;2023-05-20T02:14:16;91532.84;;;12.99;100.00
5952;BME280;3001;42.622;23.194;2023-05-20T02:16:43;91536.97;;;13.00;100.00
5952;BME280;3001;42.622;23.194;2023-05-20T02:19:11;91533.63;;;13.00;100.00
5952;BME280;3001;42.622;23.194;2023-05-20T02:21:38;91514.28;;;13.01;100.00
5952;BME280;3001;42.622;23.194;2023-05-20T02:24:05;91520.25;;;13.10;100.00
5952;BME280;3001;42.622;23.194;2023-05-20T02:26:32;91527.00;;;13.19;100.00
5952;BME280;3001;42.622;23.194;2023-05-20T02:28:59;91526.53;;;13.17;100.00
5952;BME280;3001;42.622;23.194;2023-05-20T02:31:27;91528.66;;;13.32;100.00
5952;BME280;3001;42.622;23.194;2023-05-20T02:33:53;91530.31;;;13.37;98.78
5952;BME280;3001;42.622;23.194;2023-05-20T02:36:20;91536.16;;;13.34;99.52
5952;BME280;3001;42.622;23.194;2023-05-20T02:38:47;91536.94;;;13.43;98.00
5952;BME280;3001;42.622;23.194;2023-05-20T02:41:14;91545.06;;;13.41;97.55
5952;BME280;3001;42.622;23.194;2023-05-20T02:43:40;91543.53;;;13.40;97.83
5952;BME280;3001;42.622;23.194;2023-05-20T02:46:09;91543.22;;;13.50;96.57
5952;BME280;3001;42.622;23.194;2023-05-20T02:48:37;91549.78;;;13.56;94.92
5952;BME280;3001;42.622;23.194;2023-05-20T02:51:04;91541.81;;;13.53;95.78
5952;BME280;3001;42.622;23.194;2023-05-20T02:53:31;91540.41;;;13.55;96.74
5952;BME280;3001;42.622;23.194;2023-05-20T02:55:57;91545.19;;;13.53;95.96
5952;BME280;3001;42.622;23.194;2023-05-20T02:58:25;91546.41;;;13.56;96.61
5952;BME280;3001;42.622;23.194;2023-05-20T03:00:53;91553.63;;;13.59;95.95
5952;BME280;3001;42.622;23.194;2023-05-20T03:03:22;91552.56;;;13.60;94.66
5952;BME280;3001;42.622;23.194;2023-05-20T03:05:50;91555.16;;;13.60;93.97
5952;BME280;3001;42.622;23.194;2023-05-20T03:08:18;91562.22;;;13.59;93.67
5952;BME280;3001;42.622;23.194;2023-05-20T03:10:45;91568.78;;;13.65;95.61
5952;BME280;3001;42.622;23.194;2023-05-20T03:13:12;91568.97;;;13.60;96.09
5952;BME280;3001;42.622;23.194;2023-05-20T03:15:40;91566.06;;;13.53;96.25
5952;BME280;3001;42.622;23.194;2023-05-20T03:18:08;91561.16;;;13.52;97.42
5952;BME280;3001;42.622;23.194;2023-05-20T03:20:35;91564.69;;;13.47;96.71
5952;BME280;3001;42.622;23.194;2023-05-20T03:23:04;91558.56;;;13.43;97.26
5952;BME280;3001;42.622;23.194;2023-05-20T03:25:31;91558.28;;;13.36;97.49
5952;BME280;3001;42.622;23.194;2023-05-20T03:27:58;91563.50;;;13.36;97.72
5952;BME280;3001;42.622;23.194;2023-05-20T03:30:25;91568.25;;;13.34;98.22
5952;BME280;3001;42.622;23.194;2023-05-20T03:32:52;91564.25;;;13.37;97.77
5952;BME280;3001;42.622;23.194;2023-05-20T03:35:18;91563.66;;;13.31;98.81
5952;BME280;3001;42.622;23.194;2023-05-20T03:37:45;91562.56;;;13.41;98.10
5952;BME280;3001;42.622;23.194;2023-05-20T03:40:13;91575.75;;;13.36;97.96
5952;BME280;3001;42.622;23.194;2023-05-20T03:42:40;91567.47;;;13.25;98.89
5952;BME280;3001;42.622;23.194;2023-05-20T03:45:08;91573.31;;;13.39;98.62
5952;BME280;3001;42.622;23.194;2023-05-20T03:47:34;91569.00;;;13.26;99.60
5952;BME280;3001;42.622;23.194;2023-05-20T03:50:01;91579.78;;;13.33;99.52
5952;BME280;3001;42.622;23.194;2023-05-20T03:52:28;91586.06;;;13.24;99.38
5952;BME280;3001;42.622;23.194;2023-05-20T03:54:54;91584.25;;;13.07;99.51
5952;BME280;3001;42.622;23.194;2023-05-20T03:57:22;91581.03;;;13.02;99.44
5952;BME280;3001;42.622;23.194;2023-05-20T03:59:49;91583.00;;;13.13;100.00
5952;BME280;3001;42.622;23.194;2023-05-20T04:02:16;91586.38;;;13.22;97.93
5952;BME280;3001;42.622;23.194;2023-05-20T04:04:43;91586.06;;;13.24;99.15
5952;BME280;3001;42.622;23.194;2023-05-20T04:07:10;91589.13;;;13.17;100.00
5952;BME280;3001;42.622;23.194;2023-05-20T04:09:37;91586.97;;;13.36;99.19
5952;BME280;3001;42.622;23.194;2023-05-20T04:12:04;91589.75;;;13.31;100.00
5952;BME280;3001;42.622;23.194;2023-05-20T04:14:32;91584.22;;;13.16;100.00
5952;BME280;3001;42.622;23.194;2023-05-20T04:17:01;91582.38;;;13.16;100.00
5952;BME280;3001;42.622;23.194;2023-05-20T04:19:27;91585.44;;;13.18;100.00
5952;BME280;3001;42.622;23.194;2023-05-20T04:21:55;91581.31;;;13.26;100.00
5952;BME280;3001;42.622;23.194;2023-05-20T04:24:21;91579.47;;;13.18;100.00
5952;BME280;3001;42.622;23.194;2023-05-20T04:26:49;91582.06;;;13.26;100.00
5952;BME280;3001;42.622;23.194;2023-05-20T04:29:16;91591.13;;;13.37;100.00
5952;BME280;3001;42.622;23.194;2023-05-20T04:31:44;91580.22;;;13.27;100.00
5952;BME280;3001;42.622;23.194;2023-05-20T04:34:11;91587.25;;;13.43;100.00
5952;BME280;3001;42.622;23.194;2023-05-20T04:36:38;91589.22;;;13.55;100.00
5952;BME280;3001;42.622;23.194;2023-05-20T04:39:04;91584.34;;;13.45;100.00
5952;BME280;3001;42.622;23.194;2023-05-20T04:41:33;91585.88;;;13.54;100.00
5952;BME280;3001;42.622;23.194;2023-05-20T04:44:00;91591.34;;;13.70;100.00
5952;BME280;3001;42.622;23.194;2023-05-20T04:46:28;91591.53;;;13.65;100.00
5952;BME280;3001;42.622;23.194;2023-05-20T04:48:57;91584.94;;;13.59;100.00
5952;BME280;3001;42.622;23.194;2023-05-20T04:51:23;91583.81;;;13.77;100.00
5952;BME280;3001;42.622;23.194;2023-05-20T04:53:50;91583.50;;;13.78;100.00
5952;BME280;3001;42.622;23.194;2023-05-20T04:56:17;91590.56;;;13.77;100.00
5952;BME280;3001;42.622;23.194;2023-05-20T04:58:43;91584.97;;;13.96;100.00
5952;BME280;3001;42.622;23.194;2023-05-20T05:01:10;91596.47;;;14.12;100.00
5952;BME280;3001;42.622;23.194;2023-05-20T05:03:37;91598.47;;;14.44;100.00
5952;BME280;3001;42.622;23.194;2023-05-20T05:06:05;91596.44;;;14.20;100.00
5952;BME280;3001;42.622;23.194;2023-05-20T05:08:32;91588.97;;;14.39;100.00
5952;BME280;3001;42.622;23.194;2023-05-20T05:10:58;91586.81;;;14.41;100.00
5952;BME280;3001;42.622;23.194;2023-05-20T05:13:25;91596.72;;;14.56;100.00
5952;BME280;3001;42.622;23.194;2023-05-20T05:15:57;91592.22;;;14.65;100.00
5952;BME280;3001;42.622;23.194;2023-05-20T05:18:24;91595.59;;;14.66;100.00
5952;BME280;3001;42.622;23.194;2023-05-20T05:20:58;91602.50;;;14.70;100.00
5952;BME280;3001;42.622;23.194;2023-05-20T05:23:26;91595.41;;;14.71;100.00
5952;BME280;3001;42.622;23.194;2023-05-20T05:25:53;91605.88;;;14.71;100.00
5952;BME280;3001;42.622;23.194;2023-05-20T05:28:19;91601.09;;;14.73;100.00
5952;BME280;3001;42.622;23.194;2023-05-20T05:30:46;91597.91;;;14.88;100.00
5952;BME280;3001;42.622;23.194;2023-05-20T05:33:13;91602.38;;;14.87;100.00
5952;BME280;3001;42.622;23.194;2023-05-20T05:35:40;91605.44;;;14.89;100.00
5952;BME280;3001;42.622;23.194;2023-05-20T05:38:07;91603.53;;;14.98;100.00
5952;BME280;3001;42.622;23.194;2023-05-20T05:40:35;91603.09;;;15.17;99.82
5952;BME280;3001;42.622;23.194;2023-05-20T05:43:02;91599.00;;;15.07;99.86
5952;BME280;3001;42.622;23.194;2023-05-20T05:45:28;91600.22;;;15.10;99.69
5952;BME280;3001;42.622;23.194;2023-05-20T05:47:55;91599.84;;;15.20;99.43
5952;BME280;3001;42.622;23.194;2023-05-20T05:50:22;91602.91;;;15.22;99.41
5952;BME280;3001;42.622;23.194;2023-05-20T05:52:48;91588.28;;;15.21;99.38
5952;BME280;3001;42.622;23.194;2023-05-20T05:55:15;91582.66;;;15.31;97.85
5952;BME280;3001;42.622;23.194;2023-05-20T05:57:43;91582.72;;;15.43;98.39
5952;BME280;3001;42.622;23.194;2023-05-20T06:00:11;91580.69;;;15.48;97.26
5952;BME280;3001;42.622;23.194;2023-05-20T06:02:38;91580.59;;;15.57;97.85
5952;BME280;3001;42.622;23.194;2023-05-20T06:05:05;91575.38;;;15.57;98.81
5952;BME280;3001;42.622;23.194;2023-05-20T06:07:32;91574.72;;;15.60;98.60
5952;BME280;3001;42.622;23.194;2023-05-20T06:09:59;91572.03;;;15.80;99.13
5952;BME280;3001;42.622;23.194;2023-05-20T06:12:26;91571.84;;;15.85;98.06
5952;BME280;3001;42.622;23.194;2023-05-20T06:14:54;91579.50;;;16.02;95.85
5952;BME280;3001;42.622;23.194;2023-05-20T06:17:21;91575.94;;;16.18;96.89
5952;BME280;3001;42.622;23.194;2023-05-20T06:19:47;91593.63;;;16.33;98.05
5952;BME280;3001;42.622;23.194;2023-05-20T06:22:14;91592.88;;;16.33;94.38
5952;BME280;3001;42.622;23.194;2023-05-20T06:24:41;91582.84;;;16.47;94.50
5952;BME280;3001;42.622;23.194;2023-05-20T06:27:07;91578.81;;;16.61;96.48
5952;BME280;3001;42.622;23.194;2023-05-20T06:29:34;91579.97;;;16.88;95.13
5952;BME280;3001;42.622;23.194;2023-05-20T06:32:02;91575.50;;;17.28;95.12
5952;BME280;3001;42.622;23.194;2023-05-20T06:34:29;91582.19;;;17.37;94.22
5952;BME280;3001;42.622;23.194;2023-05-20T06:36:55;91569.41;;;17.51;94.18
5952;BME280;3001;42.622;23.194;2023-05-20T06:39:22;91577.13;;;17.44;94.95
5952;BME280;3001;42.622;23.194;2023-05-20T06:41:49;91574.69;;;17.51;96.71
5952;BME280;3001;42.622;23.194;2023-05-20T06:44:16;91566.34;;;17.61;94.10
5952;BME280;3001;42.622;23.194;2023-05-20T06:46:43;91566.03;;;17.78;93.50
5952;BME280;3001;42.622;23.194;2023-05-20T06:49:11;91569.50;;;17.82;94.36
5952;BME280;3001;42.622;23.194;2023-05-20T06:51:37;91580.81;;;17.98;93.40
5952;BME280;3001;42.622;23.194;2023-05-20T06:54:04;91586.06;;;17.98;91.22
5952;BME280;3001;42.622;23.194;2023-05-20T06:56:31;91583.88;;;18.00;91.60
5952;BME280;3001;42.622;23.194;2023-05-20T06:58:57;91581.72;;;18.05;91.33
5952;BME280;3001;42.622;23.194;2023-05-20T07:01:24;91587.44;;;18.23;90.74
5952;BME280;3001;42.622;23.194;2023-05-20T07:03:51;91582.91;;;18.35;89.94
5952;BME280;3001;42.622;23.194;2023-05-20T07:06:19;91591.38;;;18.44;89.49
5952;BME280;3001;42.622;23.194;2023-05-20T07:08:46;91599.59;;;18.58;88.92
5952;BME280;3001;42.622;23.194;2023-05-20T07:11:12;91593.34;;;18.63;88.07
5952;BME280;3001;42.622;23.194;2023-05-20T07:13:39;91597.06;;;18.62;87.97
5952;BME280;3001;42.622;23.194;2023-05-20T07:16:06;91598.50;;;18.59;87.43
5952;BME280;3001;42.622;23.194;2023-05-20T07:18:32;91594.75;;;18.76;85.01
5952;BME280;3001;42.622;23.194;2023-05-20T07:20:59;91587.34;;;18.81;86.51
5952;BME280;3001;42.622;23.194;2023-05-20T07:23:27;91588.38;;;18.92;85.82
5952;BME280;3001;42.622;23.194;2023-05-20T07:25:54;91595.50;;;18.92;84.04
5952;BME280;3001;42.622;23.194;2023-05-20T07:28:21;91598.03;;;19.04;83.24
5952;BME280;3001;42.622;23.194;2023-05-20T07:30:47;91589.16;;;19.12;83.05
5952;BME280;3001;42.622;23.194;2023-05-20T07:33:15;91596.63;;;19.25;82.32
5952;BME280;3001;42.622;23.194;2023-05-20T07:35:42;91582.97;;;19.38;81.33
5952;BME280;3001;42.622;23.194;2023-05-20T07:38:10;91587.34;;;19.50;81.44
5952;BME280;3001;42.622;23.194;2023-05-20T07:40:38;91595.03;;;19.58;80.67
5952;BME280;3001;42.622;23.194;2023-05-20T07:43:06;91600.97;;;19.71;79.39
5952;BME280;3001;42.622;23.194;2023-05-20T07:45:33;91604.44;;;19.75;77.19
5952;BME280;3001;42.622;23.194;2023-05-20T07:48:00;91600.19;;;19.89;78.86
5952;BME280;3001;42.622;23.194;2023-05-20T07:50:27;91600.31;;;19.96;76.98
5952;BME280;3001;42.622;23.194;2023-05-20T07:52:54;91590.16;;;20.17;77.96
5952;BME280;3001;42.622;23.194;2023-05-20T07:55:21;91606.91;;;20.47;70.15
5952;BME280;3001;42.622;23.194;2023-05-20T07:57:49;91609.66;;;20.54;75.85
5952;BME280;3001;42.622;23.194;2023-05-20T08:00:16;91596.38;;;20.51;74.98
5952;BME280;3001;42.622;23.194;2023-05-20T08:02:43;91589.06;;;20.63;76.44
5952;BME280;3001;42.622;23.194;2023-05-20T08:05:10;91608.78;;;20.69;74.65
5952;BME280;3001;42.622;23.194;2023-05-20T08:07:36;91600.41;;;20.86;74.82
5952;BME280;3001;42.622;23.194;2023-05-20T08:10:04;91601.47;;;21.08;72.78
5952;BME280;3001;42.622;23.194;2023-05-20T08:12:30;91590.97;;;21.40;71.18
5952;BME280;3001;42.622;23.194;2023-05-20T08:14:58;91588.59;;;21.32;71.76
5952;BME280;3001;42.622;23.194;2023-05-20T08:17:25;91585.38;;;21.45;72.13
5952;BME280;3001;42.622;23.194;2023-05-20T08:19:52;91584.53;;;21.67;71.40
5952;BME280;3001;42.622;23.194;2023-05-20T08:22:18;91583.47;;;21.72;70.62
5952;BME280;3001;42.622;23.194;2023-05-20T08:24:45;91591.47;;;21.79;70.90
5952;BME280;3001;42.622;23.194;2023-05-20T08:27:12;91588.94;;;21.89;72.30
5952;BME280;3001;42.622;23.194;2023-05-20T08:29:38;91581.75;;;21.86;70.54
5952;BME280;3001;42.622;23.194;2023-05-20T08:32:07;91571.50;;;21.85;69.93
5952;BME280;3001;42.622;23.194;2023-05-20T08:34:33;91576.50;;;21.90;70.36
5952;BME280;3001;42.622;23.194;2023-05-20T08:37:01;91593.16;;;21.94;69.83
5952;BME280;3001;42.622;23.194;2023-05-20T08:39:27;91582.19;;;21.92;69.86
5952;BME280;3001;42.622;23.194;2023-05-20T08:41:56;91591.06;;;22.10;70.86
5952;BME280;3001;42.622;23.194;2023-05-20T08:44:23;91593.44;;;22.22;68.65
5952;BME280;3001;42.622;23.194;2023-05-20T08:46:51;91585.75;;;22.43;70.02
5952;BME280;3001;42.622;23.194;2023-05-20T08:49:20;91597.16;;;22.47;68.71
5952;BME280;3001;42.622;23.194;2023-05-20T08:51:46;91591.19;;;22.57;68.53
5952;BME280;3001;42.622;23.194;2023-05-20T08:54:14;91595.78;;;22.67;68.67
5952;BME280;3001;42.622;23.194;2023-05-20T08:56:42;91602.72;;;22.78;66.55
5952;BME280;3001;42.622;23.194;2023-05-20T08:59:10;91599.38;;;22.88;66.02
5952;BME280;3001;42.622;23.194;2023-05-20T09:01:40;91602.91;;;23.06;63.83
5952;BME280;3001;42.622;23.194;2023-05-20T09:04:08;91590.81;;;23.05;65.71
5952;BME280;3001;42.622;23.194;2023-05-20T09:06:43;91555.13;;;22.89;64.12
5952;BME280;3001;42.622;23.194;2023-05-20T09:09:10;91575.31;;;23.10;67.26
5952;BME280;3001;42.622;23.194;2023-05-20T09:11:38;91576.94;;;23.22;68.79
5952;BME280;3001;42.622;23.194;2023-05-20T09:14:04;91575.44;;;23.28;66.07
5952;BME280;3001;42.622;23.194;2023-05-20T09:16:31;91575.34;;;23.14;66.84
5952;BME280;3001;42.622;23.194;2023-05-20T09:18:58;91575.41;;;23.21;68.28
5952;BME280;3001;42.622;23.194;2023-05-20T09:21:25;91586.44;;;23.30;67.58
5952;BME280;3001;42.622;23.194;2023-05-20T09:23:53;91574.75;;;23.38;67.64
5952;BME280;3001;42.622;23.194;2023-05-20T09:26:22;91577.81;;;23.40;67.69
5952;BME280;3001;42.622;23.194;2023-05-20T09:28:49;91580.44;;;23.36;65.22
5952;BME280;3001;42.622;23.194;2023-05-20T09:31:15;91575.44;;;23.28;63.94
5952;BME280;3001;42.622;23.194;2023-05-20T09:33:42;91582.75;;;23.45;66.12
5952;BME280;3001;42.622;23.194;2023-05-20T09:36:09;91574.44;;;23.50;66.36
5952;BME280;3001;42.622;23.194;2023-05-20T09:38:37;91579.41;;;23.58;66.78
5952;BME280;3001;42.622;23.194;2023-05-20T09:41:09;91587.38;;;23.65;63.81
5952;BME280;3001;42.622;23.194;2023-05-20T09:43:38;91582.06;;;23.65;59.93
5952;BME280;3001;42.622;23.194;2023-05-20T09:46:06;91582.84;;;23.66;62.46
5952;BME280;3001;42.622;23.194;2023-05-20T09:48:34;91571.06;;;23.56;65.17
5952;BME280;3001;42.622;23.194;2023-05-20T09:51:02;91583.97;;;23.68;67.78
5952;BME280;3001;42.622;23.194;2023-05-20T09:53:30;91567.69;;;23.66;65.29
5952;BME280;3001;42.622;23.194;2023-05-20T09:55:57;91579.03;;;23.60;64.53
5952;BME280;3001;42.622;23.194;2023-05-20T09:58:25;91559.63;;;23.42;63.40
5952;BME280;3001;42.622;23.194;2023-05-20T10:00:52;91556.94;;;23.38;66.46
5952;BME280;3001;42.622;23.194;2023-05-20T10:03:21;91564.97;;;23.56;62.87
5952;BME280;3001;42.622;23.194;2023-05-20T10:05:59;91555.22;;;23.70;64.15
5952;BME280;3001;42.622;23.194;2023-05-20T10:08:40;91544.19;;;23.68;67.31
5952;BME280;3001;42.622;23.194;2023-05-20T10:11:14;91557.84;;;23.67;64.71
5952;BME280;3001;42.622;23.194;2023-05-20T10:14:04;91547.97;;;23.64;66.34
5952;BME280;3001;42.622;23.194;2023-05-20T10:16:37;91544.47;;;23.42;64.64
5952;BME280;3001;42.622;23.194;2023-05-20T10:19:16;91535.75;;;23.42;66.02
5952;BME280;3001;42.622;23.194;2023-05-20T10:21:55;91524.47;;;23.59;68.16
5952;BME280;3001;42.622;23.194;2023-05-20T10:24:28;91529.06;;;23.76;67.62
5952;BME280;3001;42.622;23.194;2023-05-20T10:26:56;91531.81;;;23.93;67.31
5952;BME280;3001;42.622;23.194;2023-05-20T10:29:25;91529.91;;;23.90;66.50
5952;BME280;3001;42.622;23.194;2023-05-20T10:31:52;91537.09;;;23.83;61.36
5952;BME280;3001;42.622;23.194;2023-05-20T10:34:20;91528.72;;;23.81;61.59
5952;BME280;3001;42.622;23.194;2023-05-20T10:36:57;91520.31;;;23.61;62.15
5952;BME280;3001;42.622;23.194;2023-05-20T10:39:25;91521.72;;;23.41;61.45
5952;BME280;3001;42.622;23.194;2023-05-20T10:41:52;91512.28;;;23.44;62.40
5952;BME280;3001;42.622;23.194;2023-05-20T10:44:19;91505.53;;;23.60;67.54
5952;BME280;3001;42.622;23.194;2023-05-20T10:47:00;91497.28;;;23.86;66.78
5952;BME280;3001;42.622;23.194;2023-05-20T10:49:32;91504.16;;;24.01;63.53
5952;BME280;3001;42.622;23.194;2023-05-20T10:51:59;91499.97;;;24.00;63.40
5952;BME280;3001;42.622;23.194;2023-05-20T10:54:26;91495.72;;;23.75;63.89
5952;BME280;3001;42.622;23.194;2023-05-20T10:56:53;91507.78;;;23.58;62.35
5952;BME280;3001;42.622;23.194;2023-05-20T10:59:20;91516.09;;;23.50;61.62
5952;BME280;3001;42.622;23.194;2023-05-20T11:01:49;91504.38;;;23.54;64.03
5952;BME280;3001;42.622;23.194;2023-05-20T11:04:16;91492.25;;;23.60;61.71
5952;BME280;3001;42.622;23.194;2023-05-20T11:06:49;91493.53;;;24.01;61.44
5952;BME280;3001;42.622;23.194;2023-05-20T11:09:16;91483.72;;;24.23;60.83
5952;BME280;3001;42.622;23.194;2023-05-20T11:11:43;91482.94;;;24.15;58.92
5952;BME280;3001;42.622;23.194;2023-05-20T11:14:10;91493.13;;;23.82;60.13
5952;BME280;3001;42.622;23.194;2023-05-20T11:16:39;91493.44;;;23.73;60.74
5952;BME280;3001;42.622;23.194;2023-05-20T11:19:07;91488.91;;;23.77;56.53
5952;BME280;3001;42.622;23.194;2023-05-20T11:21:41;91473.41;;;23.86;65.08
5952;BME280;3001;42.622;23.194;2023-05-20T11:24:08;91461.69;;;24.08;62.47
5952;BME280;3001;42.622;23.194;2023-05-20T11:26:35;91466.63;;;24.41;61.56
5952;BME280;3001;42.622;23.194;2023-05-20T11:29:02;91464.34;;;24.43;59.30
5952;BME280;3001;42.622;23.194;2023-05-20T11:31:29;91455.63;;;24.50;57.85
5952;BME280;3001;42.622;23.194;2023-05-20T12:17:48;91425.13;;;23.28;61.76
5952;BME280;3001;42.622;23.194;2023-05-20T12:20:17;91435.31;;;23.26;61.15
5952;BME280;3001;42.622;23.194;2023-05-20T12:22:44;91427.69;;;23.11;61.00
5952;BME280;3001;42.622;23.194;2023-05-20T12:25:11;91437.38;;;22.86;58.96
5952;BME280;3001;42.622;23.194;2023-05-20T12:27:39;91438.53;;;22.89;61.95
5952;BME280;3001;42.622;23.194;2023-05-20T12:30:06;91436.38;;;22.47;64.66
5952;BME280;3001;42.622;23.194;2023-05-20T12:32:34;91434.13;;;22.49;62.40
5952;BME280;3001;42.622;23.194;2023-05-20T12:35:02;91418.22;;;22.42;64.84
5952;BME280;3001;42.622;23.194;2023-05-20T12:37:29;91425.75;;;22.40;64.77
5952;BME280;3001;42.622;23.194;2023-05-20T12:39:56;91436.28;;;22.37;64.20
5952;BME280;3001;42.622;23.194;2023-05-20T12:42:23;91454.91;;;22.04;63.99
5952;BME280;3001;42.622;23.194;2023-05-20T12:44:50;91472.50;;;21.82;68.51
5952;BME280;3001;42.622;23.194;2023-05-20T12:47:17;91460.00;;;21.46;73.00
5952;BME280;3001;42.622;23.194;2023-05-20T12:49:44;91472.28;;;20.99;74.43
5952;BME280;3001;42.622;23.194;2023-05-20T12:52:12;91468.78;;;20.92;76.13
5952;BME280;3001;42.622;23.194;2023-05-20T12:54:38;91463.91;;;20.68;71.97
5952;BME280;3001;42.622;23.194;2023-05-20T12:57:05;91461.63;;;20.66;74.82
5952;BME280;3001;42.622;23.194;2023-05-20T12:59:32;91456.94;;;20.53;75.15
5952;BME280;3001;42.622;23.194;2023-05-20T13:01:58;91439.16;;;20.24;73.48
5952;BME280;3001;42.622;23.194;2023-05-20T13:04:25;91433.97;;;20.05;74.30
5952;BME280;3001;42.622;23.194;2023-05-20T13:06:52;91424.94;;;19.61;76.49
5952;BME280;3001;42.622;23.194;2023-05-20T13:09:20;91404.19;;;19.59;78.15
5952;BME280;3001;42.622;23.194;2023-05-20T13:11:46;91403.84;;;19.61;79.60
5952;BME280;3001;42.622;23.194;2023-05-20T13:14:13;91390.03;;;19.67;77.80
5952;BME280;3001;42.622;23.194;2023-05-20T13:16:40;91385.47;;;19.64;78.16
5952;BME280;3001;42.622;23.194;2023-05-20T13:19:07;91374.28;;;19.71;78.54
5952;BME280;3001;42.622;23.194;2023-05-20T13:21:33;91371.03;;;19.81;78.13
5952;BME280;3001;42.622;23.194;2023-05-20T13:24:00;91370.84;;;19.93;77.26
5952;BME280;3001;42.622;23.194;2023-05-20T13:26:28;91362.25;;;19.99;77.25
5952;BME280;3001;42.622;23.194;2023-05-20T13:28:55;91367.88;;;20.20;76.38
5952;BME280;3001;42.622;23.194;2023-05-20T13:31:21;91364.22;;;20.28;74.52
5952;BME280;3001;42.622;23.194;2023-05-20T13:33:48;91362.06;;;20.37;73.96
5952;BME280;3001;42.622;23.194;2023-05-20T13:36:17;91353.75;;;20.35;74.57
5952;BME280;3001;42.622;23.194;2023-05-20T13:38:44;91364.09;;;20.47;75.63
5952;BME280;3001;42.622;23.194;2023-05-20T13:41:10;91370.66;;;20.60;75.22
5952;BME280;3001;42.622;23.194;2023-05-20T13:43:38;91368.59;;;20.76;75.81
5952;BME280;3001;42.622;23.194;2023-05-20T13:46:06;91377.72;;;20.82;69.44
5952;BME280;3001;42.622;23.194;2023-05-20T13:48:33;91361.63;;;20.91;73.04
5952;BME280;3001;42.622;23.194;2023-05-20T13:50:59;91367.97;;;21.15;71.24
5952;BME280;3001;42.622;23.194;2023-05-20T13:53:26;91347.13;;;21.47;71.91